Flight Track Log - Related Links

Times and Time Zones

All times are in EDT time to prevent confusion due to time zone crossing. See the N724AE flight status page for this flight to view local times or setup timezone preferences in your user account.

Time Position Orientation Groundspeed Altitude Reporting Facility
EDT Latitude Longitude Course Direction KTS MPH feet Rate Location/Type
Wed 10:13:21 AM 32.8833 -97.0333 57° Northeast 160 184 1,500  Level Dallas / Fort Worth TRACON
Wed 10:13:57 AM 32.8500 -97.0333 180° South 179 206 2,800 1,846 Climbing Dallas / Fort Worth TRACON
Wed 10:14:52 AM 32.8000 -97.0000 151° Southeast 243 280 4,300 2,296 Climbing Dallas / Fort Worth TRACON
Wed 10:15:00 AM 32.8024 -96.7595 53° Northeast  Level FlightAware Approximate
Wed 10:15:52 AM 32.7667 -96.9333 121° Southeast 268 308 7,200  Level Dallas / Fort Worth TRACON
Wed 10:16:00 AM 32.8696 -96.6539 52° Northeast  Level FlightAware Approximate
Wed 10:17:00 AM 32.9388 -96.5501 52° Northeast  Level FlightAware Approximate
Wed 10:18:00 AM 33.0005 -96.4398 57° Northeast  Level FlightAware Approximate
Wed 10:18:22 AM 32.8419 -96.7161 68° East 309 356 12,200  Level Fort Worth Center
Wed 10:19:22 AM 32.9039 -96.6192 53° Northeast 354 407 13,900 1,650 Climbing Fort Worth Center
Wed 10:20:22 AM 32.9597 -96.5244 55° Northeast 378 435 15,500 1,700 Climbing Fort Worth Center
Wed 10:21:22 AM 33.0089 -96.3953 66° East 385 443 17,300 1,600 Climbing Fort Worth Center
Wed 10:22:22 AM 33.0475 -96.2908 66° East 385 443 18,700 1,600 Climbing Fort Worth Center
Wed 10:23:22 AM 33.0964 -96.1561 67° East 397 457 20,500 1,650 Climbing Fort Worth Center
Wed 10:24:22 AM 33.1392 -96.0464 65° Northeast 397 457 22,000 1,650 Climbing Fort Worth Center
Wed 10:25:22 AM 33.1875 -95.9067 68° East 397 457 23,800 1,600 Climbing Fort Worth Center
Wed 10:26:22 AM 33.2300 -95.7942 66° East 402 463 25,200 1,450 Climbing Fort Worth Center
Wed 10:27:22 AM 33.2803 -95.6517 67° East 412 474 26,700 1,450 Climbing Fort Worth Center
Wed 10:28:22 AM 33.3181 -95.5167 71° East 419 482 28,100 1,400 Climbing Fort Worth Center
Wed 10:29:22 AM 33.3578 -95.3867 70° East 419 482 29,500 1,400 Climbing Fort Worth Center
Wed 10:30:22 AM 33.3992 -95.2486 70° East 424 488 30,900 1,450 Climbing Fort Worth Center
Wed 10:31:22 AM 33.4386 -95.1083 71° East 434 499 32,400 1,350 Climbing Fort Worth Center
Wed 10:32:22 AM 33.4817 -94.9653 70° East 440 506 33,600 1,150 Climbing Fort Worth Center
Wed 10:33:22 AM 33.5228 -94.8247 71° East 445 512 34,700 1,050 Climbing Fort Worth Center
Wed 10:34:22 AM 33.5614 -94.6789 72° East 450 518 35,700 1,000 Climbing Fort Worth Center
Wed 10:35:22 AM 33.6061 -94.5306 70° East 450 518 36,700 650 Climbing Fort Worth Center
Wed 10:36:22 AM 33.6464 -94.3769 72° East 466 536 37,000 150 Climbing Fort Worth Center
Wed 10:37:22 AM 33.6944 -94.2181 70° East 479 551 37,000  Level Fort Worth Center
Wed 10:38:22 AM 33.7658 -94.0706 60° Northeast 492 566 37,000  Level Fort Worth Center
Wed 10:39:08 AM 33.8114 -93.9772 60° Northeast 563 648 37,000  Level Memphis Center
Wed 10:40:08 AM 33.8800 -93.8400 59° Northeast 526 605 37,000  Level Memphis Center
Wed 10:41:08 AM 33.9464 -93.7000 60° Northeast 490 564 37,000  Level Memphis Center
Wed 10:42:08 AM 34.0147 -93.5622 59° Northeast 476 548 37,000  Level Memphis Center
Wed 10:43:08 AM 34.0831 -93.4192 60° Northeast 481 554 37,000  Level Memphis Center
Wed 10:44:08 AM 34.1575 -93.2789 57° Northeast 486 559 37,000  Level Memphis Center
Wed 10:45:08 AM 34.2500 -93.1539 48° Northeast 491 565 37,000  Level Memphis Center
Wed 10:46:08 AM 34.3511 -93.0164 48° Northeast 496 571 37,000  Level Memphis Center
Wed 10:47:08 AM 34.4436 -92.8831 50° Northeast 501 577 37,000  Level Memphis Center
Wed 10:48:08 AM 34.5336 -92.7622 48° Northeast 488 562 37,000  Level Memphis Center
Wed 10:49:08 AM 34.6236 -92.6386 48° Northeast 488 562 37,000  Level Memphis Center
Wed 10:50:08 AM 34.7133 -92.5172 48° Northeast 483 556 37,000  Level Memphis Center
Wed 10:51:08 AM 34.8008 -92.3931 49° Northeast 478 550 37,000  Level Memphis Center
Wed 10:52:08 AM 34.8928 -92.2686 48° Northeast 483 556 37,000  Level Memphis Center
Wed 10:53:08 AM 34.9842 -92.1414 49° Northeast 483 556 37,000  Level Memphis Center
Wed 10:54:08 AM 35.0736 -92.0139 49° Northeast 483 556 37,000  Level Memphis Center
Wed 10:55:08 AM 35.1650 -91.8861 49° Northeast 483 556 37,000  Level Memphis Center
Wed 10:56:08 AM 35.2583 -91.7581 48° Northeast 488 562 37,000  Level Memphis Center
Wed 10:57:08 AM 35.3494 -91.6272 49° Northeast 493 567 37,000  Level Memphis Center
Wed 10:58:08 AM 35.4403 -91.5039 48° Northeast 493 567 37,000  Level Memphis Center
Wed 10:59:08 AM 35.5247 -91.3775 51° Northeast 486 559 37,000  Level Memphis Center
Wed 11:00:08 AM 35.6133 -91.2586 47° Northeast 472 543 37,000  Level Memphis Center
Wed 11:01:08 AM 35.6892 -91.1367 53° Northeast 467 537 37,000  Level Memphis Center
Wed 11:02:08 AM 35.7733 -91.0172 49° Northeast 459 528 37,000  Level Memphis Center
Wed 11:03:08 AM 35.8592 -90.8975 48° Northeast 459 528 37,000  Level Memphis Center
Wed 11:04:08 AM 35.9453 -90.7750 49° Northeast 454 522 37,000  Level Memphis Center
Wed 11:05:08 AM 36.0311 -90.6522 49° Northeast 454 522 37,000  Level Memphis Center
Wed 11:06:08 AM 36.1147 -90.5267 50° Northeast 459 528 37,000  Level Memphis Center
Wed 11:07:08 AM 36.1983 -90.4033 50° Northeast 459 528 37,000  Level Memphis Center
Wed 11:08:08 AM 36.2836 -90.2772 50° Northeast 459 528 37,000 -100 Level Memphis Center
Wed 11:09:08 AM 36.3689 -90.1533 49° Northeast 465 535 36,800 -650 Descending Memphis Center
Wed 11:10:08 AM 36.4458 -90.0422 49° Northeast 470 541 35,700 -900 Descending Memphis Center
Wed 11:11:08 AM 36.5308 -89.9153 50° Northeast 475 547 35,000 -350 Descending Memphis Center
Wed 11:12:08 AM 36.6117 -89.7986 49° Northeast 469 540 35,000  Level Memphis Center
Wed 11:13:08 AM 36.6944 -89.6764 50° Northeast 457 526 35,000  Level Memphis Center
Wed 11:14:08 AM 36.7772 -89.5539 50° Northeast 457 526 35,000  Level Memphis Center
Wed 11:15:08 AM 36.8575 -89.4286 51° Northeast 457 526 35,000  Level Memphis Center
Wed 11:16:08 AM 36.9419 -89.3006 50° Northeast 457 526 35,000  Level Memphis Center
Wed 11:17:08 AM 37.0242 -89.1747 51° Northeast 457 526 35,000  Level Memphis Center
Wed 11:18:08 AM 37.1083 -89.0486 50° Northeast 457 526 35,000 -200 Level Memphis Center
Wed 11:19:08 AM 37.1903 -88.9197 51° Northeast 462 532 34,600 -750 Descending Memphis Center
Wed 11:20:08 AM 37.2742 -88.7931 50° Northeast 462 532 33,500 -1,050 Descending Memphis Center
Wed 11:21:08 AM 37.3536 -88.6714 51° Northeast 457 526 32,500 -802 Descending Memphis Center
Wed 11:23:15 AM 37.5178 -88.4078 52° Northeast 439 505 31,000 -476 Descending Indianapolis Center
Wed 11:24:17 AM 37.5939 -88.2886 51° Northeast 436 502 31,000  Level Indianapolis Center
Wed 11:25:19 AM 37.6811 -88.1544 51° Northeast 440 506 31,000  Level Indianapolis Center
Wed 11:26:21 AM 37.7567 -88.0275 53° Northeast 446 513 31,000  Level Indianapolis Center
Wed 11:27:22 AM 37.8022 -87.8989 66° East 455 524 31,000  Level Indianapolis Center
Wed 11:28:24 AM 37.8644 -87.7239 66° East 455 524 31,000  Level Indianapolis Center
Wed 11:29:26 AM 37.9164 -87.5792 65° Northeast 452 520 31,000 -97 Level Indianapolis Center
Wed 11:30:28 AM 37.9675 -87.4347 66° East 450 518 30,800 -726 Descending Indianapolis Center
Wed 11:31:30 AM 38.0189 -87.2908 66° East 448 516 29,500 -1,306 Descending Indianapolis Center
Wed 11:32:32 AM 38.0708 -87.1422 66° East 459 528 28,100 -1,415 Descending Indianapolis Center
Wed 11:33:33 AM 38.1239 -86.9922 66° East 470 541 26,600 -1,805 Descending Indianapolis Center
Wed 11:34:35 AM 38.1875 -86.8081 66° East 481 554 24,400 -1,742 Descending Indianapolis Center
Wed 11:35:37 AM 38.2381 -86.6658 66° East 447 514 23,000 -1,694 Descending Indianapolis Center
Wed 11:36:39 AM 38.2861 -86.5250 66° East 435 501 20,900 -2,177 Descending Indianapolis Center
Wed 11:37:41 AM 38.3356 -86.3806 66° East 444 511 18,500 -2,049 Descending Indianapolis Center
Wed 11:38:42 AM 38.3831 -86.2422 66° East 431 496 16,700 -1,805 Descending Indianapolis Center
Wed 11:39:44 AM 38.4303 -86.1058 66° East 422 486 14,800 -1,790 Descending Indianapolis Center
Wed 11:40:46 AM 38.4750 -85.9725 67° East 416 479 13,000 -1,742 Descending Indianapolis Center
Wed 11:41:48 AM 38.5308 -85.8111 66° East 413 475 11,200 -919 Descending Indianapolis Center
Wed 11:42:50 AM 38.5753 -85.6778 67° East 409 471 11,100 -48 Descending Indianapolis Center
Wed 11:43:52 AM 38.6264 -85.5519 62° Northeast 398 458 11,100 -49 Level Indianapolis Center
Wed 11:44:53 AM 38.6806 -85.4350 59° Northeast 395 455 11,000 -49 Descending Indianapolis Center
Wed 11:45:55 AM 38.7344 -85.3139 60° Northeast 394 453 11,000  Level Indianapolis Center
Wed 11:46:57 AM 38.7869 -85.1919 61° Northeast 393 452 11,000  Level Indianapolis Center
Wed 11:47:59 AM 38.8492 -85.0444 62° Northeast 396 456 11,000  Level Indianapolis Center
Wed 11:49:00 AM 38.9039 -84.9197 61° Northeast 402 463 11,000 -634 Level Indianapolis Center
Wed 11:50:02 AM 38.9536 -84.8056 61° Northeast 358 412 9,700 -1,113 Descending Indianapolis Center
Wed 11:51:04 AM 39.0358 -84.7792 14° North 305 351 8,700 -1,355 Descending Indianapolis Center
Wed 11:52:06 AM 39.1161 -84.7786 360° North 289 333 6,900 -1,728 Descending Indianapolis Center
Wed 11:53:09 AM 39.2000 -84.7667 North 276 318 5,100 -1,714 Descending Cincinnati TRACON

Login

Don't have an account? Register now (free) for customized features, flight alerts, and more!